Αρχική σελίδα
METAR-TAF:

METAR-TAF

Αεροδρόμια :

Dease Lake, Βρετανική Κολομβία, Καναδάς

γεωγραφικό πλάτος: 58-25-20N, γεωγραφικό μήκος: 130-01-53W, υψόμετρο: 803 μ

Παρών καιρός

Η αναφορά έγινε 49 λεπτά πριν, στις 12:00 UTC
Ήπιος άνεμος
Θερμοκρασία -10°C
Υγρασία 92%
Πίεση 1010 hPa
Ορατότητα: 14.5 χλμ
Λίγα νέφη σε ύψος 400 πόδια

METAR: CYDL 101200Z AUTO 00000KT 9SM FEW004 M10/M11 A2983 RMK SLP148

Χρόνος: 04:49 (12:49 UTC)

Πρόγνωση Καιρού

Η αναφορά έγινε 12 ώρες και 43 λεπτά πριν, στις 00:06 UTC
Η πρόγνωση ισχύει από τις 10 στις 00 UTC έως τις 10 στις 03 UTC
Άνεμος 3 kt από μεταβλητές κατευθύνσεις
Ορατότητα: 0.8 χλμ
σε ύψος 300 πόδια
παγωμένη ομίχλη
Προσωρινά
από 10 στις 00 UTC έως τις 10 στις 03 UTC
Ορατότητα: 10 χλμ
Διάσπαρτα νέφη σε ύψος 300 πόδια

TAF: CYDL 100006Z 1000/1003 VRB03KT 1/2SM FZFG VV003 TEMPO 1000/1003 P6SM NSW SCT003 RMK FCST BASED ON AUTO OBS. NXT FCST WILL BE ISSUED AT 101645Z

Μετεωρολογικές αναφορές και προγνώσεις για περισσότερα από 4000 αεροδρόμια (δελτία METAR και TAF).

Οι διαθέσιμοι σταθμοί απεικονίζονται στο χάρτη με κίτρινες και κόκκινες κουκκίδες.

Μετακινήστε το ποντίκι πάνω από τις κουκκίδες για να δείτε το όνομα του σταθμού.

Στη συνέχεια, κάντε κλικ για να δείτε τις μετεωρολογικές αναφορές και τις προγνώσεις καιρού.

Για να αλλάξετε το χάρτη: κάντε κλικ στα πράσινα κουμπιά με τον μαύρο σταυρό για να ζουμάρετε, στο πράσινο κουμπί με την παύλα για να αφαιρέσετε το ζουμ ή στα πράσινα βέλη για να αντιπαραβάλλετε χάρτες.


METAR-TAF: